Time;durP1;ratioP1;P1;durP2;ratioP2;P2;SDS_P1;SDS_P2;PMS_P1;PMS_P2;Temp;Humidity;BMP_temperature;BMP_pressure;BME280_temperature;BME280_humidity;BME280_pressure;Samples;Min_cycle;Max_cycle;Signal;HPM_P1;HPM_P2
2023/06/27 00:01:45;;;;;;;4.50;2.78;;;19.60;67.40;;;;;;5102423;28;20110;-76
2023/06/27 00:04:11;;;;;;;5.22;2.80;;;19.50;67.10;;;;;;5119446;28;20130;-76
2023/06/27 00:06:37;;;;;;;5.00;3.10;;;19.30;67.40;;;;;;5119290;28;20035;-76
2023/06/27 00:09:05;;;;;;;4.50;2.63;;;19.20;67.70;;;;;;5119285;28;20022;-76
2023/06/27 00:11:31;;;;;;;5.55;2.85;;;19.20;67.90;;;;;;5137308;28;20023;-77
2023/06/27 00:13:58;;;;;;;4.82;2.90;;;19.10;67.90;;;;;;5119356;28;20094;-76
2023/06/27 00:16:24;;;;;;;4.55;2.80;;;19.20;68.30;;;;;;5119041;28;20030;-76
2023/06/27 00:18:50;;;;;;;7.93;3.00;;;19.20;68.30;;;;;;5119287;28;20041;-76
2023/06/27 00:21:16;;;;;;;11.18;3.08;;;19.10;68.20;;;;;;5119070;28;20025;-76
2023/06/27 00:23:43;;;;;;;5.05;3.10;;;19.10;68.00;;;;;;5102113;28;20043;-76
2023/06/27 00:26:09;;;;;;;5.50;3.00;;;19.00;68.10;;;;;;5119118;28;20019;-76
2023/06/27 00:28:35;;;;;;;4.95;2.60;;;18.90;68.40;;;;;;5136998;28;20031;-76
2023/06/27 00:31:01;;;;;;;5.63;3.00;;;18.80;68.80;;;;;;5118866;28;20032;-76
2023/06/27 00:33:27;;;;;;;4.30;2.90;;;18.80;68.90;;;;;;5136831;28;20020;-76
2023/06/27 00:35:52;;;;;;;7.25;3.00;;;18.70;69.50;;;;;;5101985;28;20030;-76
2023/06/27 00:38:18;;;;;;;4.57;3.13;;;18.60;69.70;;;;;;5118842;28;20039;-76
2023/06/27 00:40:44;;;;;;;4.32;2.58;;;18.70;69.80;;;;;;5118785;28;20038;-77
2023/06/27 00:43:10;;;;;;;4.22;2.58;;;18.70;70.00;;;;;;5101701;28;20077;-77
2023/06/27 00:45:35;;;;;;;5.28;3.15;;;18.60;70.00;;;;;;5118667;28;20035;-76
2023/06/27 00:48:02;;;;;;;4.97;3.15;;;18.60;70.10;;;;;;5101751;28;20027;-76
2023/06/27 00:50:30;;;;;;;5.30;2.90;;;18.70;70.20;;;;;;5085005;28;20023;-76
2023/06/27 00:52:58;;;;;;;5.95;2.70;;;18.70;70.20;;;;;;5118493;28;20023;-76
2023/06/27 00:55:24;;;;;;;6.57;2.80;;;18.70;70.30;;;;;;5136295;28;20067;-76
2023/06/27 00:57:50;;;;;;;7.45;2.83;;;18.70;70.20;;;;;;5118448;28;20030;-76
2023/06/27 01:00:16;;;;;;;6.70;3.17;;;18.80;70.00;;;;;;5136365;28;20364;-76
2023/06/27 01:02:45;;;;;;;6.93;3.28;;;18.80;69.90;;;;;;5118367;28;20031;-76
2023/06/27 01:05:11;;;;;;;5.22;2.97;;;18.70;70.20;;;;;;5136281;28;20015;-76
2023/06/27 01:07:47;;;;;;;6.40;2.83;;;18.60;70.50;;;;;;5118048;28;20028;-76
2023/06/27 01:10:20;;;;;;;5.43;2.83;;;18.50;70.70;;;;;;5135890;28;20020;-76
2023/06/27 01:12:49;;;;;;;6.57;2.88;;;18.60;70.80;;;;;;5118134;28;20079;-76
2023/06/27 01:15:15;;;;;;;7.93;2.92;;;18.60;70.80;;;;;;5136070;28;20026;-77
2023/06/27 01:17:41;;;;;;;9.60;3.08;;;18.60;70.90;;;;;;5136023;28;20047;-76
2023/06/27 01:20:08;;;;;;;7.68;3.05;;;18.50;71.00;;;;;;5101141;28;20031;-76
2023/06/27 01:22:42;;;;;;;5.43;2.90;;;18.50;71.00;;;;;;5117884;28;20104;-76
2023/06/27 01:25:11;;;;;;;4.90;2.97;;;18.50;71.10;;;;;;5135921;28;20026;-76
2023/06/27 01:27:37;;;;;;;6.55;3.13;;;18.50;71.20;;;;;;5117748;28;20027;-77
2023/06/27 01:30:03;;;;;;;6.93;2.80;;;18.40;71.30;;;;;;5117671;28;20440;-76
2023/06/27 01:33:01;;;;;;;5.65;2.92;;;18.50;71.50;;;;;;5117628;28;20020;-76
2023/06/27 01:36:06;;;;;;;5.07;3.03;;;18.50;71.50;;;;;;5117666;28;20028;-76
2023/06/27 01:38:49;;;;;;;7.43;3.10;;;18.50;71.80;;;;;;5105808;28;20039;-76
2023/06/27 01:41:18;;;;;;;7.50;3.25;;;18.40;72.00;;;;;;5117520;28;20026;-76
2023/06/27 01:43:45;;;;;;;5.85;3.17;;;18.40;72.10;;;;;;5117546;28;20019;-76
2023/06/27 01:46:11;;;;;;;5.20;2.80;;;18.40;72.30;;;;;;5135387;28;20027;-76
2023/06/27 01:48:40;;;;;;;8.93;3.42;;;18.40;72.60;;;;;;5117351;28;20364;-76
2023/06/27 01:51:09;;;;;;;9.82;3.40;;;18.40;72.60;;;;;;5135390;28;20012;-76
2023/06/27 01:53:38;;;;;;;7.35;3.25;;;18.30;72.60;;;;;;5135288;28;20024;-77
2023/06/27 01:56:06;;;;;;;6.57;3.47;;;18.30;73.50;;;;;;5135067;28;20071;-76
2023/06/27 01:58:32;;;;;;;5.95;3.28;;;18.30;72.80;;;;;;5135289;28;20039;-76
2023/06/27 02:00:57;;;;;;;6.10;3.80;;;18.30;72.80;;;;;;5135145;28;20028;-77
2023/06/27 02:03:23;;;;;;;6.25;3.00;;;18.30;74.00;;;;;;5117050;28;20028;-76
2023/06/27 02:05:48;;;;;;;9.50;3.63;;;18.20;73.30;;;;;;5135046;28;20024;-76
2023/06/27 02:08:14;;;;;;;8.82;3.40;;;18.20;73.40;;;;;;5117169;28;20084;-76
2023/06/27 02:10:40;;;;;;;8.27;3.40;;;18.20;73.50;;;;;;5135030;28;20020;-76
2023/06/27 02:13:05;;;;;;;9.60;3.33;;;18.20;73.50;;;;;;5134991;28;20075;-77
2023/06/27 02:15:31;;;;;;;11.00;3.55;;;18.20;73.70;;;;;;5099927;28;20475;-76
2023/06/27 02:17:58;;;;;;;6.93;3.55;;;18.20;73.80;;;;;;5099901;28;20050;-76
2023/06/27 02:20:23;;;;;;;5.63;3.30;;;18.20;74.00;;;;;;5117026;28;20027;-76
2023/06/27 02:22:49;;;;;;;7.05;3.28;;;18.20;73.90;;;;;;5099403;28;20045;-77
2023/06/27 02:25:14;;;;;;;7.10;3.45;;;18.10;74.10;;;;;;5134747;28;20462;-76
2023/06/27 02:27:40;;;;;;;8.23;3.33;;;18.10;74.00;;;;;;5099674;28;20027;-76
2023/06/27 02:30:06;;;;;;;6.32;3.33;;;18.10;74.40;;;;;;5099657;28;20479;-76
2023/06/27 02:32:32;;;;;;;7.57;3.35;;;18.10;74.40;;;;;;5116633;28;20019;-76
2023/06/27 02:34:57;;;;;;;6.47;3.28;;;18.20;74.30;;;;;;5116531;28;20058;-76
2023/06/27 02:37:23;;;;;;;6.70;3.53;;;18.10;74.20;;;;;;5116532;28;20047;-76
2023/06/27 02:39:50;;;;;;;8.23;3.88;;;18.10;74.60;;;;;;5134461;28;20082;-76
2023/06/27 02:42:16;;;;;;;9.18;3.72;;;18.00;74.70;;;;;;5116413;28;20019;-76
2023/06/27 02:44:41;;;;;;;9.82;4.18;;;18.00;74.80;;;;;;5134372;28;20032;-76
2023/06/27 02:47:07;;;;;;;7.88;3.78;;;17.90;74.90;;;;;;5116469;28;20457;-77
2023/06/27 02:49:32;;;;;;;9.98;3.15;;;17.90;75.20;;;;;;5134303;28;20020;-76
2023/06/27 02:51:58;;;;;;;8.50;3.53;;;17.80;75.50;;;;;;5134278;28;20028;-76
2023/06/27 02:54:24;;;;;;;9.52;3.55;;;17.80;75.50;;;;;;5116345;28;20024;-76
2023/06/27 02:56:49;;;;;;;11.25;3.20;;;17.90;75.60;;;;;;5099158;28;20501;-77
2023/06/27 02:59:15;;;;;;;7.00;3.20;;;17.90;75.70;;;;;;5099286;28;20085;-76
2023/06/27 03:01:40;;;;;;;7.93;3.33;;;17.90;75.60;;;;;;5116104;28;20028;-76
2023/06/27 03:04:09;;;;;;;10.00;3.67;;;17.80;75.70;;;;;;5116270;28;20031;-76
2023/06/27 03:06:34;;;;;;;7.10;3.22;;;17.80;76.20;;;;;;5116079;28;20020;-77
2023/06/27 03:09:00;;;;;;;9.45;3.22;;;17.80;76.10;;;;;;5116069;28;20032;-76
2023/06/27 03:11:26;;;;;;;7.30;3.13;;;17.80;76.10;;;;;;5116119;28;20024;-76
2023/06/27 03:13:51;;;;;;;6.80;3.40;;;17.70;76.50;;;;;;5116024;28;20034;-76
2023/06/27 03:16:17;;;;;;;6.25;3.45;;;17.70;76.50;;;;;;5134017;28;20027;-76
2023/06/27 03:18:43;;;;;;;11.48;3.33;;;17.70;77.40;;;;;;5099105;28;20058;-76
2023/06/27 03:21:08;;;;;;;8.20;3.28;;;17.70;76.70;;;;;;5115892;28;20059;-76
2023/06/27 03:23:34;;;;;;;7.35;3.30;;;17.70;76.60;;;;;;5115940;28;20043;-77
2023/06/27 03:25:59;;;;;;;8.73;3.60;;;17.70;76.90;;;;;;5099027;28;20364;-77
2023/06/27 03:28:25;;;;;;;5.78;3.50;;;17.60;78.00;;;;;;5082295;28;20028;-77
2023/06/27 03:30:51;;;;;;;8.00;3.55;;;17.50;77.20;;;;;;5115831;28;20046;-77
2023/06/27 03:33:16;;;;;;;10.60;3.63;;;17.50;77.40;;;;;;5116373;28;20032;-77
2023/06/27 03:35:42;;;;;;;8.95;3.58;;;17.50;77.60;;;;;;5120084;28;20039;-76
2023/06/27 03:38:08;;;;;;;9.70;3.47;;;17.50;77.70;;;;;;5103148;28;20024;-76
2023/06/27 03:40:33;;;;;;;8.40;4.00;;;17.50;77.70;;;;;;5137915;28;20035;-76
2023/06/27 03:42:59;;;;;;;7.68;3.55;;;17.50;77.80;;;;;;5138090;28;20040;-76
2023/06/27 03:45:24;;;;;;;7.53;3.50;;;17.50;77.90;;;;;;5086183;28;20023;-77
2023/06/27 03:47:50;;;;;;;13.23;3.75;;;17.40;78.30;;;;;;5137891;28;20036;-77
2023/06/27 03:50:16;;;;;;;9.00;3.15;;;17.50;78.10;;;;;;5119658;28;20020;-76
2023/06/27 03:52:41;;;;;;;5.50;3.08;;;17.50;78.30;;;;;;5137664;28;20049;-76
2023/06/27 03:55:07;;;;;;;9.82;3.42;;;17.40;78.40;;;;;;5119520;28;20048;-79
2023/06/27 03:57:33;;;;;;;7.40;3.13;;;17.40;78.80;;;;;;5102983;28;20027;-78
2023/06/27 03:59:59;;;;;;;10.55;3.45;;;17.40;78.70;;;;;;5102614;28;20032;-79
2023/06/27 04:02:24;;;;;;;8.88;3.45;;;17.50;78.70;;;;;;5119404;28;20095;-79
2023/06/27 04:04:50;;;;;;;8.95;2.92;;;17.50;78.70;;;;;;5137472;28;20027;-79
2023/06/27 04:07:16;;;;;;;8.93;3.80;;;17.50;79.00;;;;;;5102387;28;20038;-79
2023/06/27 04:09:41;;;;;;;7.55;2.90;;;17.40;79.20;;;;;;5119558;28;20035;-79
2023/06/27 04:12:08;;;;;;;10.35;3.10;;;17.40;79.30;;;;;;5102355;28;20058;-79
2023/06/27 04:14:34;;;;;;;7.45;3.00;;;17.50;79.10;;;;;;5137318;28;20030;-76
2023/06/27 04:17:00;;;;;;;8.55;3.30;;;17.50;79.00;;;;;;5137222;28;20043;-76
2023/06/27 04:19:25;;;;;;;8.13;3.17;;;17.50;79.80;;;;;;5102371;28;20027;-76
2023/06/27 04:21:51;;;;;;;8.23;3.47;;;17.50;79.20;;;;;;5119119;28;20038;-77
2023/06/27 04:24:16;;;;;;;10.70;3.38;;;17.50;79.20;;;;;;5137083;28;20024;-77
2023/06/27 04:26:42;;;;;;;8.88;3.17;;;17.50;79.10;;;;;;5136947;28;20039;-77
2023/06/27 04:29:08;;;;;;;8.68;3.38;;;17.50;79.20;;;;;;5119040;28;20016;-77
2023/06/27 04:31:34;;;;;;;9.60;3.70;;;17.50;79.60;;;;;;5102120;28;20024;-77
2023/06/27 04:34:00;;;;;;;8.60;3.55;;;17.40;79.60;;;;;;5101823;28;20019;-76
2023/06/27 04:36:26;;;;;;;7.35;3.40;;;17.40;79.60;;;;;;5101939;28;20027;-77
2023/06/27 04:38:52;;;;;;;9.10;3.67;;;17.40;79.70;;;;;;5101931;28;20039;-77
2023/06/27 04:41:18;;;;;;;6.72;3.20;;;17.50;79.70;;;;;;5136746;28;20032;-77
2023/06/27 04:43:43;;;;;;;11.13;3.03;;;17.40;80.00;;;;;;5136738;28;20071;-77
2023/06/27 04:46:09;;;;;;;10.02;3.63;;;17.40;80.20;;;;;;5100964;28;20078;-77
2023/06/27 04:48:35;;;;;;;7.13;3.53;;;17.40;80.20;;;;;;5118664;28;20019;-77
2023/06/27 04:51:01;;;;;;;8.00;3.75;;;17.40;80.30;;;;;;5118482;28;20046;-77
2023/06/27 04:53:27;;;;;;;8.68;4.03;;;17.40;80.50;;;;;;5118547;28;20031;-77
2023/06/27 04:55:53;;;;;;;10.88;3.90;;;17.30;80.70;;;;;;5118428;28;20073;-77
2023/06/27 04:58:19;;;;;;;8.95;4.22;;;17.30;81.20;;;;;;5136399;28;20031;-77
2023/06/27 05:00:51;;;;;;;9.32;3.85;;;17.20;81.20;;;;;;5136382;28;20031;-77
2023/06/27 05:03:18;;;;;;;11.52;4.55;;;17.30;81.50;;;;;;5136500;28;20091;-78
2023/06/27 05:05:44;;;;;;;10.57;4.32;;;17.30;81.40;;;;;;5118145;28;20030;-77
2023/06/27 05:08:10;;;;;;;9.60;4.22;;;17.30;81.40;;;;;;5136223;28;20016;-77
2023/06/27 05:10:36;;;;;;;11.80;4.28;;;17.20;82.00;;;;;;5136132;28;20023;-77
2023/06/27 05:13:01;;;;;;;8.77;4.45;;;17.20;81.70;;;;;;5101245;28;20023;-77
2023/06/27 05:15:27;;;;;;;10.68;4.20;;;17.20;81.70;;;;;;5118072;28;20034;-77
2023/06/27 05:18:15;;;;;;;10.10;4.43;;;17.20;82.70;;;;;;5136051;28;20079;-77
2023/06/27 05:20:45;;;;;;;9.60;4.75;;;17.20;81.90;;;;;;5135934;28;20055;-77
2023/06/27 05:23:11;;;;;;;8.32;4.50;;;17.20;82.30;;;;;;5135958;28;20093;-77
2023/06/27 05:25:37;;;;;;;9.90;4.50;;;17.10;82.90;;;;;;5117787;28;20024;-77
2023/06/27 05:28:03;;;;;;;13.00;5.00;;;17.10;83.00;;;;;;5135865;28;20015;-78
2023/06/27 05:30:30;;;;;;;9.10;4.88;;;17.10;83.10;;;;;;5135811;28;20033;-78
2023/06/27 05:32:56;;;;;;;12.35;4.93;;;17.10;83.60;;;;;;5135824;28;20497;-77
2023/06/27 05:35:22;;;;;;;11.63;4.65;;;17.10;83.40;;;;;;5135650;28;20020;-77
2023/06/27 05:37:48;;;;;;;11.63;4.57;;;17.10;83.90;;;;;;5135546;28;20034;-77
2023/06/27 05:40:14;;;;;;;9.55;5.28;;;17.20;83.70;;;;;;5100696;28;20031;-77
2023/06/27 05:42:40;;;;;;;9.73;5.63;;;17.20;84.10;;;;;;5117645;28;20031;-77
2023/06/27 05:45:06;;;;;;;11.35;5.30;;;17.30;84.10;;;;;;5135542;28;20428;-77
2023/06/27 05:47:32;;;;;;;10.75;5.13;;;17.30;84.50;;;;;;5083815;28;20028;-78
2023/06/27 05:49:58;;;;;;;9.73;5.10;;;17.30;84.20;;;;;;5100407;28;20096;-78
2023/06/27 05:52:24;;;;;;;11.80;5.30;;;17.40;84.40;;;;;;5135355;28;20027;-78
2023/06/27 05:54:50;;;;;;;10.30;5.22;;;17.40;85.20;;;;;;5135113;28;20036;-78
2023/06/27 05:57:16;;;;;;;11.25;5.93;;;17.40;84.80;;;;;;5134301;28;20027;-79
2023/06/27 05:59:42;;;;;;;14.85;6.20;;;17.40;84.70;;;;;;5117415;28;20043;-79
2023/06/27 06:02:07;;;;;;;11.23;5.40;;;17.50;85.10;;;;;;5100348;28;20032;-79
2023/06/27 06:04:33;;;;;;;9.40;5.20;;;17.60;84.60;;;;;;5117192;28;20042;-79
2023/06/27 06:06:58;;;;;;;9.82;5.22;;;17.70;84.40;;;;;;5117126;28;20031;-79
2023/06/27 06:09:25;;;;;;;11.25;4.97;;;17.80;84.60;;;;;;5100224;28;20023;-79
2023/06/27 06:11:51;;;;;;;11.07;5.68;;;17.90;84.40;;;;;;5117047;28;20043;-78
2023/06/27 06:14:16;;;;;;;13.50;5.72;;;18.00;84.30;;;;;;5134997;28;20037;-77
2023/06/27 06:16:42;;;;;;;19.05;5.57;;;18.00;84.50;;;;;;5134939;28;20534;-79
2023/06/27 06:19:18;;;;;;;9.68;4.85;;;18.10;84.10;;;;;;5131683;27;20380;-78
2023/06/27 06:21:44;;;;;;;10.55;4.75;;;18.20;83.90;;;;;;5113600;28;20032;-78
2023/06/27 06:24:10;;;;;;;10.88;4.97;;;18.30;83.60;;;;;;5113379;28;20028;-78
2023/06/27 06:26:35;;;;;;;10.95;5.65;;;18.40;83.30;;;;;;5130346;28;20032;-78
2023/06/27 06:29:05;;;;;;;10.50;5.38;;;18.40;83.40;;;;;;5131251;28;20035;-78
2023/06/27 06:31:31;;;;;;;10.02;5.43;;;18.40;83.50;;;;;;5130368;28;20012;-78
2023/06/27 06:33:57;;;;;;;12.18;4.85;;;18.50;83.50;;;;;;5113078;28;20046;-78
2023/06/27 06:36:26;;;;;;;10.55;4.97;;;18.50;83.60;;;;;;5113194;28;20020;-78
2023/06/27 06:38:51;;;;;;;10.60;5.78;;;18.60;83.10;;;;;;5131000;28;20024;-78
2023/06/27 06:41:20;;;;;;;11.30;5.03;;;18.70;82.60;;;;;;5130234;28;20471;-78
2023/06/27 06:43:46;;;;;;;11.05;5.03;;;18.80;82.50;;;;;;5129923;28;20026;-78
2023/06/27 06:46:12;;;;;;;12.50;6.10;;;18.80;82.90;;;;;;5130910;28;20039;-77
2023/06/27 06:48:38;;;;;;;12.52;5.68;;;18.80;82.90;;;;;;5129919;28;20020;-78
2023/06/27 06:51:03;;;;;;;9.23;4.82;;;18.80;82.90;;;;;;5130848;28;20546;-79
2023/06/27 06:53:29;;;;;;;8.07;4.90;;;19.00;82.70;;;;;;5129820;28;20016;-79
2023/06/27 06:55:54;;;;;;;12.23;4.93;;;19.10;82.60;;;;;;5112779;28;20036;-79
2023/06/27 06:58:20;;;;;;;12.65;5.30;;;19.10;82.10;;;;;;5130726;28;20031;-79
2023/06/27 07:00:46;;;;;;;9.48;4.93;;;19.30;81.10;;;;;;5130712;28;20028;-79
2023/06/27 07:03:11;;;;;;;6.97;3.85;;;19.30;80.60;;;;;;5130711;28;20020;-78
2023/06/27 07:05:37;;;;;;;8.40;4.18;;;19.50;80.40;;;;;;5130615;28;20081;-79
2023/06/27 07:08:04;;;;;;;9.85;3.75;;;19.50;79.60;;;;;;5130537;28;20028;-79
2023/06/27 07:10:30;;;;;;;6.05;3.08;;;19.70;79.00;;;;;;5129480;28;20051;-79
2023/06/27 07:12:56;;;;;;;7.70;3.25;;;19.70;77.60;;;;;;5129453;28;20031;-78
2023/06/27 07:15:23;;;;;;;7.15;2.85;;;19.80;77.20;;;;;;5130385;28;20016;-77
2023/06/27 07:17:50;;;;;;;5.45;2.33;;;19.90;76.10;;;;;;5112063;28;20073;-79
2023/06/27 07:20:16;;;;;;;4.70;2.40;;;19.90;75.40;;;;;;5130297;28;20079;-79
2023/06/27 07:22:42;;;;;;;5.72;2.35;;;20.00;74.80;;;;;;5129317;28;20027;-79
2023/06/27 07:25:08;;;;;;;5.68;2.03;;;20.10;74.30;;;;;;5112107;28;20027;-79
2023/06/27 07:27:34;;;;;;;4.10;2.42;;;20.10;73.10;;;;;;5130109;28;20026;-78
2023/06/27 07:29:59;;;;;;;6.93;2.70;;;20.10;72.50;;;;;;5120000;28;20125;-79
2023/06/27 07:32:25;;;;;;;6.95;2.78;;;20.30;72.50;;;;;;5115367;28;20058;-79
2023/06/27 07:34:51;;;;;;;7.65;3.03;;;20.30;72.50;;;;;;5115452;28;20087;-79
2023/06/27 07:37:16;;;;;;;3.67;1.80;;;20.30;72.00;;;;;;5116265;28;20062;-79
2023/06/27 07:39:42;;;;;;;4.63;1.90;;;20.40;70.00;;;;;;5115305;28;20036;-79
2023/06/27 07:42:08;;;;;;;6.63;2.22;;;20.40;70.10;;;;;;5098294;28;20024;-79
2023/06/27 07:44:34;;;;;;;4.00;1.70;;;20.50;69.90;;;;;;5115192;28;20054;-79
2023/06/27 07:47:00;;;;;;;5.47;2.28;;;20.50;70.00;;;;;;5115169;28;20028;-79
2023/06/27 07:49:25;;;;;;;6.55;2.17;;;20.60;70.30;;;;;;5115236;28;20070;-79
2023/06/27 07:51:51;;;;;;;5.65;2.10;;;20.70;70.10;;;;;;5098171;28;20046;-79
2023/06/27 07:54:21;;;;;;;5.43;2.05;;;20.70;70.80;;;;;;5115124;28;20016;-79
2023/06/27 07:56:49;;;;;;;5.22;1.95;;;20.80;70.40;;;;;;5114938;28;20028;-79
2023/06/27 07:59:16;;;;;;;6.43;1.83;;;20.90;69.40;;;;;;5114926;28;20039;-78
2023/06/27 08:01:42;;;;;;;2.80;1.83;;;20.90;67.40;;;;;;5098245;28;20054;-77
2023/06/27 08:04:08;;;;;;;3.50;1.90;;;20.90;68.10;;;;;;5115828;28;20027;-77
2023/06/27 08:06:33;;;;;;;5.43;2.17;;;20.90;68.40;;;;;;5114820;28;20028;-77
2023/06/27 08:08:59;;;;;;;6.90;1.95;;;21.00;68.60;;;;;;5097913;28;20025;-77
2023/06/27 08:11:25;;;;;;;6.13;2.10;;;21.00;68.30;;;;;;5115650;28;20089;-78
2023/06/27 08:13:51;;;;;;;8.02;2.15;;;21.10;68.50;;;;;;5114617;28;20099;-78
2023/06/27 08:16:16;;;;;;;6.28;2.20;;;21.10;68.60;;;;;;5114767;28;20032;-77
2023/06/27 08:18:42;;;;;;;5.78;2.15;;;21.20;67.90;;;;;;5097533;28;20048;-78
2023/06/27 08:21:07;;;;;;;5.25;1.80;;;21.30;67.70;;;;;;5097723;28;20024;-78
2023/06/27 08:23:33;;;;;;;5.45;1.88;;;21.30;67.40;;;;;;5097549;28;20024;-78
2023/06/27 08:25:59;;;;;;;4.63;1.75;;;21.30;66.70;;;;;;5097433;28;20024;-77
2023/06/27 08:28:25;;;;;;;7.10;1.60;;;21.30;66.30;;;;;;5097542;28;20046;-78
2023/06/27 08:30:50;;;;;;;4.60;1.98;;;21.40;66.30;;;;;;5114417;28;20032;-77
2023/06/27 08:33:16;;;;;;;3.00;1.70;;;21.50;65.30;;;;;;5115224;28;20024;-78
2023/06/27 08:35:43;;;;;;;11.48;1.90;;;21.50;64.90;;;;;;5115186;28;20032;-78
2023/06/27 08:38:10;;;;;;;3.95;1.40;;;21.40;64.90;;;;;;5097559;28;20025;-79
2023/06/27 08:40:36;;;;;;;4.38;1.65;;;21.40;64.70;;;;;;5114291;28;20020;-78
2023/06/27 08:43:02;;;;;;;4.28;1.88;;;21.40;65.00;;;;;;5114910;28;20028;-78
2023/06/27 08:45:28;;;;;;;5.90;1.50;;;21.50;65.20;;;;;;5115119;28;20028;-78
2023/06/27 08:47:54;;;;;;;3.55;1.73;;;21.50;65.60;;;;;;5097085;28;20050;-78
2023/06/27 08:50:21;;;;;;;14.93;3.67;;;21.60;65.20;;;;;;5097122;28;20036;-78
2023/06/27 08:52:58;;;;;;;4.35;1.33;;;21.60;64.60;;;;;;5113850;28;20032;-78
2023/06/27 08:55:57;;;;;;;4.38;1.75;;;21.70;64.40;;;;;;5114852;28;20020;-78
2023/06/27 08:58:38;;;;;;;5.20;1.35;;;21.70;64.30;;;;;;5113814;28;20535;-78
2023/06/27 09:01:04;;;;;;;4.75;1.30;;;21.70;64.50;;;;;;5113789;28;20076;-78
2023/06/27 09:03:31;;;;;;;6.55;1.55;;;21.70;64.60;;;;;;5096773;28;20032;-78
2023/06/27 09:05:56;;;;;;;4.18;1.30;;;21.70;63.90;;;;;;5113546;28;20087;-78
2023/06/27 09:08:22;;;;;;;3.63;1.50;;;21.70;64.10;;;;;;5113657;28;20046;-78
2023/06/27 09:10:48;;;;;;;3.92;1.50;;;21.80;62.70;;;;;;5113500;28;20024;-78
2023/06/27 09:13:16;;;;;;;6.10;1.58;;;21.70;62.10;;;;;;5113427;28;20032;-77
2023/06/27 09:15:41;;;;;;;4.40;1.70;;;21.70;62.40;;;;;;5114494;28;20020;-78
2023/06/27 09:18:07;;;;;;;3.80;1.58;;;21.60;62.40;;;;;;5113239;28;20044;-78
2023/06/27 09:20:33;;;;;;;3.65;1.70;;;21.60;62.90;;;;;;5113411;28;20035;-78
2023/06/27 09:23:05;;;;;;;5.20;1.60;;;21.60;63.40;;;;;;5114291;28;20024;-78
2023/06/27 09:25:31;;;;;;;3.75;1.13;;;21.60;63.50;;;;;;5113431;28;20094;-78
2023/06/27 09:27:58;;;;;;;5.10;1.52;;;21.70;62.80;;;;;;5114255;28;20032;-79
2023/06/27 09:30:25;;;;;;;4.63;1.13;;;21.60;62.20;;;;;;5096537;28;20034;-79
2023/06/27 09:32:55;;;;;;;3.78;1.45;;;21.70;61.60;;;;;;5113257;28;20091;-78
2023/06/27 09:35:21;;;;;;;5.88;1.55;;;21.70;61.30;;;;;;5114140;28;20035;-79
2023/06/27 09:37:47;;;;;;;2.97;1.20;;;21.70;61.70;;;;;;5096104;28;20087;-79
2023/06/27 09:40:27;;;;;;;4.00;1.42;;;21.80;62.20;;;;;;5096094;28;20040;-80
2023/06/27 09:42:56;;;;;;;3.10;1.30;;;21.90;61.50;;;;;;5114015;28;20081;-79
2023/06/27 09:45:23;;;;;;;4.50;1.20;;;21.80;61.60;;;;;;5112950;28;20024;-79
2023/06/27 09:47:50;;;;;;;3.65;1.35;;;21.80;61.60;;;;;;5113870;28;20024;-78
2023/06/27 09:50:16;;;;;;;4.13;1.58;;;21.80;61.50;;;;;;5112912;28;20024;-78
2023/06/27 09:52:51;;;;;;;3.30;1.33;;;21.90;60.80;;;;;;5113594;28;20031;-79
2023/06/27 09:55:20;;;;;;;3.33;1.20;;;21.90;61.40;;;;;;5113794;28;20039;-78
2023/06/27 09:57:47;;;;;;;3.08;1.20;;;22.00;60.10;;;;;;5112661;28;20074;-78
2023/06/27 10:00:14;;;;;;;3.83;1.30;;;22.10;60.30;;;;;;5113586;28;20050;-79
2023/06/27 10:02:41;;;;;;;3.55;1.60;;;22.20;60.60;;;;;;5096077;28;20049;-78
2023/06/27 10:05:08;;;;;;;4.10;1.30;;;22.20;59.90;;;;;;5112657;28;20048;-77
2023/06/27 10:07:34;;;;;;;4.32;1.23;;;22.20;60.30;;;;;;5112588;28;20028;-77
2023/06/27 10:10:00;;;;;;;5.50;1.95;;;22.30;59.40;;;;;;5095797;28;20100;-78
2023/06/27 10:12:26;;;;;;;2.60;1.02;;;22.20;58.50;;;;;;5113718;28;20034;-77
2023/06/27 10:14:53;;;;;;;2.58;1.00;;;22.20;58.70;;;;;;5113573;28;20031;-76
2023/06/27 10:17:20;;;;;;;5.18;1.17;;;22.10;56.90;;;;;;5113290;28;20040;-77
2023/06/27 10:19:46;;;;;;;3.10;1.00;;;22.10;57.40;;;;;;5113546;28;20020;-77
2023/06/27 10:22:17;;;;;;;2.00;0.80;;;22.20;56.50;;;;;;5113488;28;20024;-77
2023/06/27 10:24:46;;;;;;;3.08;0.90;;;22.20;54.70;;;;;;5112472;28;20020;-77
2023/06/27 10:27:15;;;;;;;3.08;0.98;;;22.20;54.50;;;;;;5112377;28;20050;-77
2023/06/27 10:29:41;;;;;;;1.30;0.73;;;22.20;54.20;;;;;;5112565;28;20465;-77
2023/06/27 10:32:10;;;;;;;2.63;0.90;;;22.30;54.10;;;;;;5113411;28;20016;-78
2023/06/27 10:34:42;;;;;;;2.08;1.08;;;22.40;52.00;;;;;;5112328;28;20031;-77
2023/06/27 10:37:26;;;;;;;2.05;0.90;;;22.40;52.90;;;;;;5113291;28;20024;-77
2023/06/27 10:40:08;;;;;;;1.63;0.95;;;22.50;51.00;;;;;;5112249;28;20433;-77
2023/06/27 10:42:41;;;;;;;1.35;0.60;;;22.50;50.70;;;;;;5112265;28;20024;-78
2023/06/27 10:45:16;;;;;;;2.30;0.90;;;22.60;50.90;;;;;;5112240;28;20024;-78
2023/06/27 10:47:42;;;;;;;1.35;0.90;;;22.70;51.10;;;;;;5113154;28;20020;-77
2023/06/27 10:50:19;;;;;;;2.30;0.88;;;22.80;51.70;;;;;;5113229;28;20035;-78
2023/06/27 10:53:04;;;;;;;4.00;1.02;;;22.90;52.20;;;;;;5113191;28;20056;-78
2023/06/27 10:55:32;;;;;;;3.60;1.00;;;23.00;52.00;;;;;;5112196;28;20031;-78
2023/06/27 10:58:09;;;;;;;1.35;0.80;;;23.00;50.90;;;;;;5113056;28;20055;-78
2023/06/27 11:00:35;;;;;;;2.47;1.13;;;22.90;49.50;;;;;;5113179;28;20094;-79
2023/06/27 11:03:04;;;;;;;2.10;1.00;;;22.90;50.80;;;;;;5112269;28;20036;-78
2023/06/27 11:05:47;;;;;;;2.13;1.00;;;22.90;51.60;;;;;;5115936;28;20050;-77
2023/06/27 11:08:18;;;;;;;2.97;1.23;;;23.00;52.90;;;;;;5116916;28;20024;-77
2023/06/27 11:10:59;;;;;;;3.80;1.45;;;23.00;53.00;;;;;;5115965;28;20024;-78
2023/06/27 11:13:27;;;;;;;3.53;1.70;;;23.00;53.00;;;;;;5115897;28;20028;-78
2023/06/27 11:15:54;;;;;;;1.88;1.20;;;23.10;54.10;;;;;;5116747;28;20054;-78
2023/06/27 11:18:22;;;;;;;4.13;1.55;;;23.20;54.20;;;;;;5115418;28;20048;-78
2023/06/27 11:20:49;;;;;;;3.83;1.83;;;23.30;54.70;;;;;;5115618;28;20475;-78
2023/06/27 11:23:16;;;;;;;4.20;1.30;;;23.30;54.40;;;;;;5098646;28;20040;-78
2023/06/27 11:25:44;;;;;;;3.47;1.10;;;23.30;54.90;;;;;;5115640;28;20016;-78
2023/06/27 11:28:16;;;;;;;4.05;1.60;;;23.40;55.60;;;;;;5115537;28;20032;-78
2023/06/27 11:30:43;;;;;;;3.80;1.50;;;23.40;55.50;;;;;;5116523;28;20028;-78
2023/06/27 11:33:08;;;;;;;3.03;1.67;;;23.60;55.20;;;;;;5116418;28;20024;-78
2023/06/27 11:35:38;;;;;;;2.38;1.42;;;23.60;55.00;;;;;;5116300;28;20039;-81
2023/06/27 11:38:08;;;;;;;2.85;1.50;;;23.60;53.80;;;;;;5098283;28;20091;-77
2023/06/27 11:40:34;;;;;;;2.67;1.30;;;23.60;54.10;;;;;;5098362;28;20028;-77
2023/06/27 11:43:07;;;;;;;3.88;1.40;;;23.60;53.90;;;;;;5115120;28;20077;-76
2023/06/27 11:45:34;;;;;;;5.28;1.40;;;23.70;54.30;;;;;;5115254;28;20031;-77
2023/06/27 11:48:01;;;;;;;2.10;1.10;;;23.60;53.80;;;;;;5115122;28;20020;-78
2023/06/27 11:50:27;;;;;;;2.30;1.10;;;23.60;52.00;;;;;;5115259;28;20028;-76
2023/06/27 11:52:56;;;;;;;2.42;1.20;;;23.60;51.70;;;;;;5116011;28;20035;-76
2023/06/27 11:55:22;;;;;;;2.05;1.20;;;23.70;52.50;;;;;;5116155;28;20032;-77
2023/06/27 11:57:51;;;;;;;4.90;1.20;;;23.70;52.30;;;;;;5115855;28;20028;-78
2023/06/27 12:00:25;;;;;;;2.88;1.13;;;23.80;52.50;;;;;;5115951;28;20028;-77
2023/06/27 12:02:52;;;;;;;2.47;1.00;;;23.80;50.70;;;;;;5115001;28;20034;-76
2023/06/27 12:05:20;;;;;;;3.95;1.20;;;23.80;49.20;;;;;;5115842;28;20050;-77
2023/06/27 12:07:54;;;;;;;3.15;1.25;;;23.70;49.60;;;;;;5115703;28;20024;-78
2023/06/27 12:10:20;;;;;;;1.90;1.10;;;23.70;50.30;;;;;;5114684;28;20133;-79
2023/06/27 12:12:46;;;;;;;2.58;1.00;;;23.70;50.30;;;;;;5114686;28;20087;-78
2023/06/27 12:15:14;;;;;;;3.05;1.00;;;23.70;50.30;;;;;;5114613;28;20039;-78
2023/06/27 12:18:01;;;;;;;3.20;0.90;;;23.70;49.50;;;;;;5115314;28;20048;-77
2023/06/27 12:20:40;;;;;;;5.22;1.20;;;23.70;49.90;;;;;;5114579;28;20024;-77
2023/06/27 12:23:07;;;;;;;1.83;0.98;;;23.80;50.40;;;;;;5115486;28;20023;-78
2023/06/27 12:25:32;;;;;;;3.45;1.13;;;23.90;50.90;;;;;;5115580;28;20021;-79
2023/06/27 12:27:58;;;;;;;4.88;1.10;;;24.00;48.40;;;;;;5114438;28;20035;-80
2023/06/27 12:30:23;;;;;;;3.00;1.48;;;23.90;47.50;;;;;;5114473;28;20098;-79
2023/06/27 12:32:49;;;;;;;3.00;1.10;;;23.90;48.00;;;;;;5097304;28;20043;-79
2023/06/27 12:35:18;;;;;;;2.08;0.90;;;23.80;47.40;;;;;;5115143;28;20024;-79
2023/06/27 12:37:47;;;;;;;4.88;1.05;;;23.70;47.20;;;;;;5113728;28;20092;-78
2023/06/27 12:40:16;;;;;;;1.77;0.80;;;23.70;48.30;;;;;;5097318;28;20078;-81
2023/06/27 12:42:43;;;;;;;2.97;0.80;;;23.60;47.90;;;;;;5114178;28;20020;-78
2023/06/27 12:45:12;;;;;;;7.60;1.52;;;23.60;48.50;;;;;;5115062;28;20020;-79
2023/06/27 12:47:41;;;;;;;1.90;0.85;;;23.70;48.40;;;;;;5113953;28;20016;-80